sensor_id;sensor_type;location;lat;lon;timestamp;P1;durP1;ratioP1;P2;durP2;ratioP2
6564;SDS011;3316;44.118;27.258;2023-01-26T00:00:51;47.33;;;20.20;;
6564;SDS011;3316;44.118;27.258;2023-01-26T00:03:17;44.53;;;21.97;;
6564;SDS011;3316;44.118;27.258;2023-01-26T00:05:43;45.70;;;20.83;;
6564;SDS011;3316;44.118;27.258;2023-01-26T00:08:09;45.83;;;21.20;;
6564;SDS011;3316;44.118;27.258;2023-01-26T00:10:36;40.00;;;19.10;;
6564;SDS011;3316;44.118;27.258;2023-01-26T00:13:05;38.77;;;19.10;;
6564;SDS011;3316;44.118;27.258;2023-01-26T00:15:32;47.70;;;20.47;;
6564;SDS011;3316;44.118;27.258;2023-01-26T00:17:58;39.23;;;18.77;;
6564;SDS011;3316;44.118;27.258;2023-01-26T00:20:24;43.53;;;20.37;;
6564;SDS011;3316;44.118;27.258;2023-01-26T00:22:50;46.13;;;19.57;;
6564;SDS011;3316;44.118;27.258;2023-01-26T00:25:16;41.33;;;19.60;;
6564;SDS011;3316;44.118;27.258;2023-01-26T00:27:41;45.97;;;20.63;;
6564;SDS011;3316;44.118;27.258;2023-01-26T00:30:07;45.50;;;20.33;;
6564;SDS011;3316;44.118;27.258;2023-01-26T00:32:35;40.40;;;20.07;;
6564;SDS011;3316;44.118;27.258;2023-01-26T00:35:02;40.10;;;19.83;;
6564;SDS011;3316;44.118;27.258;2023-01-26T00:37:28;40.27;;;20.27;;
6564;SDS011;3316;44.118;27.258;2023-01-26T00:39:53;43.90;;;20.70;;
6564;SDS011;3316;44.118;27.258;2023-01-26T00:42:19;44.20;;;19.30;;
6564;SDS011;3316;44.118;27.258;2023-01-26T00:44:45;48.80;;;20.30;;
6564;SDS011;3316;44.118;27.258;2023-01-26T00:47:11;38.93;;;19.77;;
6564;SDS011;3316;44.118;27.258;2023-01-26T00:49:37;41.13;;;19.57;;
6564;SDS011;3316;44.118;27.258;2023-01-26T00:52:03;47.43;;;22.80;;
6564;SDS011;3316;44.118;27.258;2023-01-26T00:54:30;40.43;;;18.90;;
6564;SDS011;3316;44.118;27.258;2023-01-26T00:56:55;50.10;;;22.20;;
6564;SDS011;3316;44.118;27.258;2023-01-26T00:59:21;43.27;;;20.40;;
6564;SDS011;3316;44.118;27.258;2023-01-26T01:01:46;38.17;;;19.20;;
6564;SDS011;3316;44.118;27.258;2023-01-26T01:04:13;42.47;;;20.20;;
6564;SDS011;3316;44.118;27.258;2023-01-26T01:06:39;39.17;;;18.40;;
6564;SDS011;3316;44.118;27.258;2023-01-26T01:09:04;43.90;;;20.13;;
6564;SDS011;3316;44.118;27.258;2023-01-26T01:11:31;46.03;;;20.60;;
6564;SDS011;3316;44.118;27.258;2023-01-26T01:13:56;46.17;;;20.10;;
6564;SDS011;3316;44.118;27.258;2023-01-26T01:16:22;41.40;;;20.93;;
6564;SDS011;3316;44.118;27.258;2023-01-26T01:18:51;41.67;;;19.80;;
6564;SDS011;3316;44.118;27.258;2023-01-26T01:21:18;44.17;;;19.90;;
6564;SDS011;3316;44.118;27.258;2023-01-26T01:23:44;43.97;;;18.77;;
6564;SDS011;3316;44.118;27.258;2023-01-26T01:26:09;44.07;;;19.67;;
6564;SDS011;3316;44.118;27.258;2023-01-26T01:28:35;41.33;;;19.50;;
6564;SDS011;3316;44.118;27.258;2023-01-26T01:31:05;43.63;;;18.67;;
6564;SDS011;3316;44.118;27.258;2023-01-26T01:33:32;40.07;;;18.13;;
6564;SDS011;3316;44.118;27.258;2023-01-26T01:35:58;44.97;;;20.67;;
6564;SDS011;3316;44.118;27.258;2023-01-26T01:38:25;39.83;;;19.80;;
6564;SDS011;3316;44.118;27.258;2023-01-26T01:40:52;40.20;;;18.63;;
6564;SDS011;3316;44.118;27.258;2023-01-26T01:43:17;43.20;;;19.37;;
6564;SDS011;3316;44.118;27.258;2023-01-26T01:45:44;39.63;;;19.57;;
6564;SDS011;3316;44.118;27.258;2023-01-26T01:51:34;38.27;;;18.87;;
6564;SDS011;3316;44.118;27.258;2023-01-26T01:54:09;46.60;;;20.57;;
6564;SDS011;3316;44.118;27.258;2023-01-26T01:56:38;41.17;;;19.27;;
6564;SDS011;3316;44.118;27.258;2023-01-26T01:59:07;45.97;;;20.40;;
6564;SDS011;3316;44.118;27.258;2023-01-26T02:01:35;39.17;;;18.87;;
6564;SDS011;3316;44.118;27.258;2023-01-26T02:04:01;40.70;;;18.93;;
6564;SDS011;3316;44.118;27.258;2023-01-26T02:09:00;40.40;;;17.83;;
6564;SDS011;3316;44.118;27.258;2023-01-26T02:11:30;38.47;;;19.37;;
6564;SDS011;3316;44.118;27.258;2023-01-26T02:14:01;45.13;;;19.87;;
6564;SDS011;3316;44.118;27.258;2023-01-26T02:16:29;41.83;;;18.00;;
6564;SDS011;3316;44.118;27.258;2023-01-26T02:18:55;49.33;;;20.60;;
6564;SDS011;3316;44.118;27.258;2023-01-26T02:21:20;42.37;;;18.97;;
6564;SDS011;3316;44.118;27.258;2023-01-26T02:26:32;36.43;;;18.03;;
6564;SDS011;3316;44.118;27.258;2023-01-26T02:29:00;41.83;;;18.90;;
6564;SDS011;3316;44.118;27.258;2023-01-26T02:31:27;39.17;;;18.90;;
6564;SDS011;3316;44.118;27.258;2023-01-26T02:33:53;39.97;;;18.43;;
6564;SDS011;3316;44.118;27.258;2023-01-26T02:36:26;44.20;;;20.50;;
6564;SDS011;3316;44.118;27.258;2023-01-26T02:41:46;29.03;;;13.43;;
6564;SDS011;3316;44.118;27.258;2023-01-26T02:44:32;40.17;;;18.83;;
6564;SDS011;3316;44.118;27.258;2023-01-26T02:46:57;43.07;;;20.27;;
6564;SDS011;3316;44.118;27.258;2023-01-26T02:49:23;42.80;;;20.30;;
6564;SDS011;3316;44.118;27.258;2023-01-26T02:52:07;43.50;;;20.37;;
6564;SDS011;3316;44.118;27.258;2023-01-26T02:54:32;43.53;;;19.57;;
6564;SDS011;3316;44.118;27.258;2023-01-26T02:57:17;44.27;;;19.43;;
6564;SDS011;3316;44.118;27.258;2023-01-26T02:59:42;48.87;;;20.10;;
6564;SDS011;3316;44.118;27.258;2023-01-26T03:02:08;41.23;;;19.53;;
6564;SDS011;3316;44.118;27.258;2023-01-26T03:04:33;46.67;;;20.03;;
6564;SDS011;3316;44.118;27.258;2023-01-26T03:06:59;47.10;;;20.67;;
6564;SDS011;3316;44.118;27.258;2023-01-26T03:09:24;48.77;;;21.13;;
6564;SDS011;3316;44.118;27.258;2023-01-26T03:11:50;45.43;;;20.40;;
6564;SDS011;3316;44.118;27.258;2023-01-26T03:14:15;58.87;;;22.13;;
6564;SDS011;3316;44.118;27.258;2023-01-26T03:16:41;41.17;;;20.03;;
6564;SDS011;3316;44.118;27.258;2023-01-26T03:19:08;45.43;;;20.60;;
6564;SDS011;3316;44.118;27.258;2023-01-26T03:21:54;41.50;;;19.43;;
6564;SDS011;3316;44.118;27.258;2023-01-26T03:24:48;46.23;;;20.77;;
6564;SDS011;3316;44.118;27.258;2023-01-26T03:27:36;43.27;;;20.10;;
6564;SDS011;3316;44.118;27.258;2023-01-26T03:30:04;46.20;;;19.80;;
6564;SDS011;3316;44.118;27.258;2023-01-26T03:32:30;51.53;;;21.17;;
6564;SDS011;3316;44.118;27.258;2023-01-26T03:34:56;41.27;;;20.27;;
6564;SDS011;3316;44.118;27.258;2023-01-26T03:37:21;47.07;;;20.73;;
6564;SDS011;3316;44.118;27.258;2023-01-26T03:39:49;45.80;;;21.43;;
6564;SDS011;3316;44.118;27.258;2023-01-26T03:42:34;45.63;;;21.17;;
6564;SDS011;3316;44.118;27.258;2023-01-26T03:45:19;47.07;;;19.80;;
6564;SDS011;3316;44.118;27.258;2023-01-26T03:48:05;43.67;;;20.63;;
6564;SDS011;3316;44.118;27.258;2023-01-26T03:50:50;46.80;;;19.43;;
6564;SDS011;3316;44.118;27.258;2023-01-26T03:53:34;45.70;;;21.07;;
6564;SDS011;3316;44.118;27.258;2023-01-26T03:56:18;44.70;;;21.70;;
6564;SDS011;3316;44.118;27.258;2023-01-26T03:58:52;52.33;;;21.27;;
6564;SDS011;3316;44.118;27.258;2023-01-26T04:01:20;50.90;;;22.47;;
6564;SDS011;3316;44.118;27.258;2023-01-26T04:03:51;45.33;;;21.90;;
6564;SDS011;3316;44.118;27.258;2023-01-26T04:06:37;45.10;;;21.77;;
6564;SDS011;3316;44.118;27.258;2023-01-26T04:09:24;45.57;;;21.50;;
6564;SDS011;3316;44.118;27.258;2023-01-26T04:11:49;47.37;;;20.07;;
6564;SDS011;3316;44.118;27.258;2023-01-26T04:14:15;55.07;;;22.43;;
6564;SDS011;3316;44.118;27.258;2023-01-26T04:16:59;48.30;;;22.23;;
6564;SDS011;3316;44.118;27.258;2023-01-26T04:19:45;46.47;;;21.63;;
6564;SDS011;3316;44.118;27.258;2023-01-26T04:22:29;52.40;;;22.10;;
6564;SDS011;3316;44.118;27.258;2023-01-26T04:24:55;43.27;;;22.13;;
6564;SDS011;3316;44.118;27.258;2023-01-26T04:27:23;49.07;;;23.60;;
6564;SDS011;3316;44.118;27.258;2023-01-26T04:29:49;61.53;;;25.20;;
6564;SDS011;3316;44.118;27.258;2023-01-26T04:32:14;44.57;;;21.97;;
6564;SDS011;3316;44.118;27.258;2023-01-26T04:34:40;53.10;;;22.63;;
6564;SDS011;3316;44.118;27.258;2023-01-26T04:37:05;51.33;;;22.07;;
6564;SDS011;3316;44.118;27.258;2023-01-26T04:39:30;48.63;;;23.27;;
6564;SDS011;3316;44.118;27.258;2023-01-26T04:41:56;51.83;;;24.33;;
6564;SDS011;3316;44.118;27.258;2023-01-26T04:44:21;48.23;;;21.70;;
6564;SDS011;3316;44.118;27.258;2023-01-26T04:46:47;45.20;;;23.10;;
6564;SDS011;3316;44.118;27.258;2023-01-26T04:49:13;55.63;;;23.27;;
6564;SDS011;3316;44.118;27.258;2023-01-26T04:51:38;49.33;;;21.77;;
6564;SDS011;3316;44.118;27.258;2023-01-26T04:54:04;52.70;;;23.20;;
6564;SDS011;3316;44.118;27.258;2023-01-26T04:56:31;53.87;;;23.40;;
6564;SDS011;3316;44.118;27.258;2023-01-26T04:58:58;49.83;;;22.63;;
6564;SDS011;3316;44.118;27.258;2023-01-26T05:01:26;47.37;;;21.97;;
6564;SDS011;3316;44.118;27.258;2023-01-26T05:03:51;51.30;;;22.37;;
6564;SDS011;3316;44.118;27.258;2023-01-26T05:06:17;42.13;;;20.03;;
6564;SDS011;3316;44.118;27.258;2023-01-26T05:08:43;51.97;;;21.90;;
6564;SDS011;3316;44.118;27.258;2023-01-26T05:11:08;52.73;;;19.37;;
6564;SDS011;3316;44.118;27.258;2023-01-26T05:13:34;44.53;;;21.00;;
6564;SDS011;3316;44.118;27.258;2023-01-26T05:16:00;43.43;;;20.53;;
6564;SDS011;3316;44.118;27.258;2023-01-26T05:18:26;53.00;;;22.03;;
6564;SDS011;3316;44.118;27.258;2023-01-26T05:20:52;47.80;;;19.83;;
6564;SDS011;3316;44.118;27.258;2023-01-26T05:23:18;55.00;;;22.10;;
6564;SDS011;3316;44.118;27.258;2023-01-26T05:25:43;49.60;;;21.70;;
6564;SDS011;3316;44.118;27.258;2023-01-26T05:28:09;51.13;;;22.30;;
6564;SDS011;3316;44.118;27.258;2023-01-26T05:30:34;52.83;;;18.57;;
6564;SDS011;3316;44.118;27.258;2023-01-26T05:33:00;47.60;;;20.07;;
6564;SDS011;3316;44.118;27.258;2023-01-26T05:35:26;53.90;;;23.60;;
6564;SDS011;3316;44.118;27.258;2023-01-26T05:37:52;52.20;;;22.40;;
6564;SDS011;3316;44.118;27.258;2023-01-26T05:40:17;57.23;;;22.73;;
6564;SDS011;3316;44.118;27.258;2023-01-26T05:42:43;49.33;;;15.50;;
6564;SDS011;3316;44.118;27.258;2023-01-26T05:45:08;47.17;;;21.77;;
6564;SDS011;3316;44.118;27.258;2023-01-26T05:47:34;57.33;;;22.77;;
6564;SDS011;3316;44.118;27.258;2023-01-26T05:49:59;52.23;;;22.77;;
6564;SDS011;3316;44.118;27.258;2023-01-26T05:52:25;52.27;;;24.10;;
6564;SDS011;3316;44.118;27.258;2023-01-26T05:54:51;55.27;;;25.33;;
6564;SDS011;3316;44.118;27.258;2023-01-26T05:57:16;61.63;;;27.87;;
6564;SDS011;3316;44.118;27.258;2023-01-26T05:59:42;56.57;;;24.70;;
6564;SDS011;3316;44.118;27.258;2023-01-26T06:02:08;42.70;;;19.60;;
6564;SDS011;3316;44.118;27.258;2023-01-26T06:04:36;53.30;;;24.43;;
6564;SDS011;3316;44.118;27.258;2023-01-26T06:07:02;55.27;;;24.87;;
6564;SDS011;3316;44.118;27.258;2023-01-26T06:09:27;47.30;;;23.27;;
6564;SDS011;3316;44.118;27.258;2023-01-26T06:11:53;51.13;;;21.20;;
6564;SDS011;3316;44.118;27.258;2023-01-26T06:14:18;47.67;;;22.00;;
6564;SDS011;3316;44.118;27.258;2023-01-26T06:16:44;53.77;;;22.63;;
6564;SDS011;3316;44.118;27.258;2023-01-26T06:19:09;54.83;;;25.87;;
6564;SDS011;3316;44.118;27.258;2023-01-26T06:21:35;46.73;;;23.93;;
6564;SDS011;3316;44.118;27.258;2023-01-26T06:24:01;51.17;;;23.97;;
6564;SDS011;3316;44.118;27.258;2023-01-26T06:26:27;47.73;;;22.27;;
6564;SDS011;3316;44.118;27.258;2023-01-26T06:28:52;56.37;;;25.00;;
6564;SDS011;3316;44.118;27.258;2023-01-26T06:31:18;53.23;;;23.20;;
6564;SDS011;3316;44.118;27.258;2023-01-26T06:33:45;58.27;;;22.83;;
6564;SDS011;3316;44.118;27.258;2023-01-26T06:36:13;58.90;;;24.23;;
6564;SDS011;3316;44.118;27.258;2023-01-26T06:38:46;55.07;;;24.33;;
6564;SDS011;3316;44.118;27.258;2023-01-26T06:41:12;43.30;;;21.67;;
6564;SDS011;3316;44.118;27.258;2023-01-26T06:43:38;61.47;;;24.87;;
6564;SDS011;3316;44.118;27.258;2023-01-26T06:46:04;56.60;;;25.93;;
6564;SDS011;3316;44.118;27.258;2023-01-26T06:48:31;58.73;;;27.00;;
6564;SDS011;3316;44.118;27.258;2023-01-26T06:53:52;56.03;;;28.03;;
6564;SDS011;3316;44.118;27.258;2023-01-26T06:56:21;71.97;;;27.40;;
6564;SDS011;3316;44.118;27.258;2023-01-26T06:58:48;54.63;;;24.90;;
6564;SDS011;3316;44.118;27.258;2023-01-26T07:01:17;54.87;;;25.50;;
6564;SDS011;3316;44.118;27.258;2023-01-26T07:03:48;73.30;;;29.43;;
6564;SDS011;3316;44.118;27.258;2023-01-26T07:06:14;66.30;;;28.73;;
6564;SDS011;3316;44.118;27.258;2023-01-26T07:08:39;57.47;;;27.03;;
6564;SDS011;3316;44.118;27.258;2023-01-26T07:11:05;59.33;;;27.83;;
6564;SDS011;3316;44.118;27.258;2023-01-26T07:13:31;56.70;;;27.97;;
6564;SDS011;3316;44.118;27.258;2023-01-26T07:18:26;59.60;;;25.10;;
6564;SDS011;3316;44.118;27.258;2023-01-26T07:20:52;61.53;;;26.43;;
6564;SDS011;3316;44.118;27.258;2023-01-26T07:23:17;53.63;;;22.10;;
6564;SDS011;3316;44.118;27.258;2023-01-26T07:25:43;57.53;;;25.83;;
6564;SDS011;3316;44.118;27.258;2023-01-26T07:28:08;50.93;;;22.97;;
6564;SDS011;3316;44.118;27.258;2023-01-26T07:30:34;54.07;;;25.13;;
6564;SDS011;3316;44.118;27.258;2023-01-26T07:33:00;54.57;;;24.70;;
6564;SDS011;3316;44.118;27.258;2023-01-26T07:35:26;49.60;;;22.80;;
6564;SDS011;3316;44.118;27.258;2023-01-26T07:37:53;51.37;;;21.83;;
6564;SDS011;3316;44.118;27.258;2023-01-26T07:40:19;47.20;;;23.00;;
6564;SDS011;3316;44.118;27.258;2023-01-26T07:42:45;52.37;;;22.37;;
6564;SDS011;3316;44.118;27.258;2023-01-26T07:45:11;54.87;;;22.40;;
6564;SDS011;3316;44.118;27.258;2023-01-26T07:47:36;50.63;;;22.73;;
6564;SDS011;3316;44.118;27.258;2023-01-26T07:50:02;58.10;;;22.00;;
6564;SDS011;3316;44.118;27.258;2023-01-26T07:52:28;63.33;;;26.03;;
6564;SDS011;3316;44.118;27.258;2023-01-26T07:54:53;53.70;;;24.53;;
6564;SDS011;3316;44.118;27.258;2023-01-26T07:57:18;58.60;;;23.63;;
6564;SDS011;3316;44.118;27.258;2023-01-26T07:59:44;54.97;;;25.13;;
6564;SDS011;3316;44.118;27.258;2023-01-26T08:02:09;60.70;;;25.20;;
6564;SDS011;3316;44.118;27.258;2023-01-26T08:04:35;61.83;;;25.27;;
6564;SDS011;3316;44.118;27.258;2023-01-26T08:07:00;59.93;;;24.93;;
6564;SDS011;3316;44.118;27.258;2023-01-26T08:09:26;59.40;;;27.73;;
6564;SDS011;3316;44.118;27.258;2023-01-26T08:11:51;58.37;;;26.33;;
6564;SDS011;3316;44.118;27.258;2023-01-26T08:14:16;70.20;;;28.77;;
6564;SDS011;3316;44.118;27.258;2023-01-26T08:16:42;58.63;;;24.67;;
6564;SDS011;3316;44.118;27.258;2023-01-26T08:19:09;53.40;;;25.50;;
6564;SDS011;3316;44.118;27.258;2023-01-26T08:21:34;65.13;;;26.63;;
6564;SDS011;3316;44.118;27.258;2023-01-26T08:24:00;62.30;;;25.90;;
6564;SDS011;3316;44.118;27.258;2023-01-26T08:26:27;54.80;;;24.47;;
6564;SDS011;3316;44.118;27.258;2023-01-26T08:28:53;61.23;;;25.43;;
6564;SDS011;3316;44.118;27.258;2023-01-26T08:31:19;60.10;;;26.23;;
6564;SDS011;3316;44.118;27.258;2023-01-26T08:33:46;59.50;;;24.87;;
6564;SDS011;3316;44.118;27.258;2023-01-26T08:36:14;65.43;;;27.13;;
6564;SDS011;3316;44.118;27.258;2023-01-26T08:38:41;59.57;;;26.23;;
6564;SDS011;3316;44.118;27.258;2023-01-26T08:41:07;57.50;;;25.40;;
6564;SDS011;3316;44.118;27.258;2023-01-26T08:43:33;60.60;;;28.17;;
6564;SDS011;3316;44.118;27.258;2023-01-26T08:45:59;57.60;;;25.13;;
6564;SDS011;3316;44.118;27.258;2023-01-26T08:48:25;61.33;;;23.23;;
6564;SDS011;3316;44.118;27.258;2023-01-26T08:50:54;71.03;;;30.37;;
6564;SDS011;3316;44.118;27.258;2023-01-26T08:53:20;72.50;;;30.67;;
6564;SDS011;3316;44.118;27.258;2023-01-26T08:55:46;76.60;;;34.80;;
6564;SDS011;3316;44.118;27.258;2023-01-26T08:58:12;64.90;;;26.67;;
6564;SDS011;3316;44.118;27.258;2023-01-26T09:00:37;62.97;;;26.57;;
6564;SDS011;3316;44.118;27.258;2023-01-26T09:03:03;54.87;;;24.13;;
6564;SDS011;3316;44.118;27.258;2023-01-26T09:05:30;69.67;;;28.10;;
6564;SDS011;3316;44.118;27.258;2023-01-26T09:07:56;74.87;;;32.67;;
6564;SDS011;3316;44.118;27.258;2023-01-26T09:10:22;94.77;;;37.87;;
6564;SDS011;3316;44.118;27.258;2023-01-26T09:12:47;112.37;;;47.87;;
6564;SDS011;3316;44.118;27.258;2023-01-26T09:15:13;77.30;;;32.10;;
6564;SDS011;3316;44.118;27.258;2023-01-26T09:17:38;83.83;;;36.67;;
6564;SDS011;3316;44.118;27.258;2023-01-26T09:20:06;69.90;;;30.70;;
6564;SDS011;3316;44.118;27.258;2023-01-26T09:22:33;54.27;;;22.77;;
6564;SDS011;3316;44.118;27.258;2023-01-26T09:24:59;57.40;;;26.07;;
6564;SDS011;3316;44.118;27.258;2023-01-26T09:27:24;51.70;;;23.40;;
6564;SDS011;3316;44.118;27.258;2023-01-26T09:29:51;50.67;;;23.93;;
6564;SDS011;3316;44.118;27.258;2023-01-26T09:32:17;55.60;;;26.20;;
6564;SDS011;3316;44.118;27.258;2023-01-26T09:34:43;54.43;;;24.37;;
6564;SDS011;3316;44.118;27.258;2023-01-26T09:37:08;51.03;;;22.87;;
6564;SDS011;3316;44.118;27.258;2023-01-26T09:39:34;59.50;;;25.37;;
6564;SDS011;3316;44.118;27.258;2023-01-26T09:50:30;54.30;;;22.77;;
6564;SDS011;3316;44.118;27.258;2023-01-26T09:53:03;61.40;;;26.33;;
6564;SDS011;3316;44.118;27.258;2023-01-26T09:55:36;67.90;;;29.93;;
6564;SDS011;3316;44.118;27.258;2023-01-26T09:58:05;74.03;;;31.57;;
6564;SDS011;3316;44.118;27.258;2023-01-26T10:00:48;50.20;;;23.00;;
6564;SDS011;3316;44.118;27.258;2023-01-26T10:08:37;46.40;;;19.40;;
6564;SDS011;3316;44.118;27.258;2023-01-26T10:11:05;39.90;;;20.67;;
6564;SDS011;3316;44.118;27.258;2023-01-26T10:13:37;65.57;;;33.20;;
6564;SDS011;3316;44.118;27.258;2023-01-26T10:16:04;62.70;;;30.83;;
6564;SDS011;3316;44.118;27.258;2023-01-26T10:21:29;53.67;;;24.03;;
6564;SDS011;3316;44.118;27.258;2023-01-26T10:24:01;52.57;;;24.70;;
6564;SDS011;3316;44.118;27.258;2023-01-26T10:26:29;41.77;;;20.87;;
6564;SDS011;3316;44.118;27.258;2023-01-26T10:28:55;52.30;;;24.87;;
6564;SDS011;3316;44.118;27.258;2023-01-26T10:31:22;50.63;;;20.63;;
6564;SDS011;3316;44.118;27.258;2023-01-26T10:33:57;45.90;;;22.70;;
6564;SDS011;3316;44.118;27.258;2023-01-26T10:36:34;50.97;;;23.67;;
6564;SDS011;3316;44.118;27.258;2023-01-26T10:39:06;49.07;;;22.60;;
6564;SDS011;3316;44.118;27.258;2023-01-26T10:41:33;48.87;;;23.00;;
6564;SDS011;3316;44.118;27.258;2023-01-26T10:44:20;45.00;;;21.37;;
6564;SDS011;3316;44.118;27.258;2023-01-26T10:47:00;46.37;;;21.27;;
6564;SDS011;3316;44.118;27.258;2023-01-26T10:49:28;48.07;;;22.93;;
6564;SDS011;3316;44.118;27.258;2023-01-26T10:52:06;47.03;;;22.13;;
6564;SDS011;3316;44.118;27.258;2023-01-26T10:54:38;47.53;;;23.40;;
6564;SDS011;3316;44.118;27.258;2023-01-26T10:57:26;54.00;;;24.17;;
6564;SDS011;3316;44.118;27.258;2023-01-26T11:02:20;48.60;;;24.67;;
6564;SDS011;3316;44.118;27.258;2023-01-26T11:05:31;52.33;;;24.43;;
6564;SDS011;3316;44.118;27.258;2023-01-26T11:07:45;52.37;;;26.83;;
6564;SDS011;3316;44.118;27.258;2023-01-26T11:10:34;48.00;;;24.00;;
6564;SDS011;3316;44.118;27.258;2023-01-26T11:13:13;49.53;;;24.13;;
6564;SDS011;3316;44.118;27.258;2023-01-26T11:20:48;52.63;;;24.37;;
6564;SDS011;3316;44.118;27.258;2023-01-26T11:26:08;43.00;;;22.23;;
6564;SDS011;3316;44.118;27.258;2023-01-26T11:34:38;52.03;;;25.07;;
6564;SDS011;3316;44.118;27.258;2023-01-26T11:48:37;56.60;;;27.93;;
6564;SDS011;3316;44.118;27.258;2023-01-26T11:59:37;64.47;;;29.93;;
6564;SDS011;3316;44.118;27.258;2023-01-26T12:04:53;49.67;;;25.97;;
6564;SDS011;3316;44.118;27.258;2023-01-26T12:07:26;54.93;;;27.80;;
6564;SDS011;3316;44.118;27.258;2023-01-26T12:09:56;65.50;;;32.93;;
6564;SDS011;3316;44.118;27.258;2023-01-26T12:12:46;67.80;;;34.50;;
6564;SDS011;3316;44.118;27.258;2023-01-26T12:15:22;81.83;;;42.63;;
6564;SDS011;3316;44.118;27.258;2023-01-26T12:18:10;69.93;;;36.70;;
6564;SDS011;3316;44.118;27.258;2023-01-26T12:20:55;57.97;;;29.93;;
6564;SDS011;3316;44.118;27.258;2023-01-26T12:26:22;63.67;;;32.97;;
6564;SDS011;3316;44.118;27.258;2023-01-26T12:28:54;73.07;;;37.00;;
6564;SDS011;3316;44.118;27.258;2023-01-26T12:31:56;75.90;;;35.30;;
6564;SDS011;3316;44.118;27.258;2023-01-26T12:34:23;72.87;;;34.87;;
6564;SDS011;3316;44.118;27.258;2023-01-26T12:39:33;75.27;;;34.37;;
6564;SDS011;3316;44.118;27.258;2023-01-26T12:44:52;62.43;;;31.40;;
6564;SDS011;3316;44.118;27.258;2023-01-26T12:47:30;66.33;;;36.43;;
6564;SDS011;3316;44.118;27.258;2023-01-26T12:52:49;75.63;;;36.93;;
6564;SDS011;3316;44.118;27.258;2023-01-26T12:57:57;65.13;;;33.63;;
6564;SDS011;3316;44.118;27.258;2023-01-26T13:00:31;71.73;;;37.43;;
6564;SDS011;3316;44.118;27.258;2023-01-26T13:11:39;74.13;;;37.73;;
6564;SDS011;3316;44.118;27.258;2023-01-26T13:16:50;41.83;;;20.63;;
6564;SDS011;3316;44.118;27.258;2023-01-26T13:19:35;48.43;;;22.70;;
6564;SDS011;3316;44.118;27.258;2023-01-26T13:22:36;35.30;;;18.93;;
6564;SDS011;3316;44.118;27.258;2023-01-26T13:25:12;34.40;;;18.50;;
6564;SDS011;3316;44.118;27.258;2023-01-26T13:27:44;33.63;;;17.13;;
6564;SDS011;3316;44.118;27.258;2023-01-26T13:32:50;33.07;;;16.60;;
6564;SDS011;3316;44.118;27.258;2023-01-26T13:35:21;33.77;;;16.40;;
6564;SDS011;3316;44.118;27.258;2023-01-26T13:40:35;33.97;;;18.83;;
6564;SDS011;3316;44.118;27.258;2023-01-26T13:48:17;60.07;;;23.57;;
6564;SDS011;3316;44.118;27.258;2023-01-26T13:50:49;62.03;;;26.13;;
6564;SDS011;3316;44.118;27.258;2023-01-26T13:59:02;38.97;;;19.67;;
6564;SDS011;3316;44.118;27.258;2023-01-26T14:01:33;41.47;;;21.20;;
6564;SDS011;3316;44.118;27.258;2023-01-26T14:04:04;43.73;;;18.90;;
6564;SDS011;3316;44.118;27.258;2023-01-26T14:06:32;27.80;;;14.03;;
6564;SDS011;3316;44.118;27.258;2023-01-26T14:09:00;45.50;;;20.43;;
6564;SDS011;3316;44.118;27.258;2023-01-26T14:11:29;32.93;;;15.73;;
6564;SDS011;3316;44.118;27.258;2023-01-26T14:13:58;40.53;;;19.30;;
6564;SDS011;3316;44.118;27.258;2023-01-26T14:16:29;38.37;;;19.60;;
6564;SDS011;3316;44.118;27.258;2023-01-26T14:21:54;23.77;;;13.07;;
6564;SDS011;3316;44.118;27.258;2023-01-26T14:24:32;27.47;;;15.27;;
6564;SDS011;3316;44.118;27.258;2023-01-26T14:27:03;32.90;;;16.53;;
6564;SDS011;3316;44.118;27.258;2023-01-26T14:29:29;30.63;;;16.17;;
6564;SDS011;3316;44.118;27.258;2023-01-26T14:31:56;27.90;;;15.27;;
6564;SDS011;3316;44.118;27.258;2023-01-26T14:34:25;26.10;;;14.47;;
6564;SDS011;3316;44.118;27.258;2023-01-26T14:37:06;18.97;;;9.87;;
6564;SDS011;3316;44.118;27.258;2023-01-26T14:39:42;43.20;;;19.60;;
6564;SDS011;3316;44.118;27.258;2023-01-26T14:42:16;32.93;;;13.57;;
6564;SDS011;3316;44.118;27.258;2023-01-26T14:44:44;29.57;;;15.27;;
6564;SDS011;3316;44.118;27.258;2023-01-26T14:47:29;40.40;;;19.47;;
6564;SDS011;3316;44.118;27.258;2023-01-26T14:52:32;40.37;;;18.80;;
6564;SDS011;3316;44.118;27.258;2023-01-26T14:55:47;21.63;;;13.07;;
6564;SDS011;3316;44.118;27.258;2023-01-26T14:57:55;28.50;;;12.83;;
6564;SDS011;3316;44.118;27.258;2023-01-26T15:00:26;22.67;;;11.80;;
6564;SDS011;3316;44.118;27.258;2023-01-26T15:02:54;27.33;;;14.50;;
6564;SDS011;3316;44.118;27.258;2023-01-26T15:05:24;18.50;;;10.20;;
6564;SDS011;3316;44.118;27.258;2023-01-26T15:07:57;19.67;;;10.90;;
6564;SDS011;3316;44.118;27.258;2023-01-26T15:10:39;21.17;;;12.03;;
6564;SDS011;3316;44.118;27.258;2023-01-26T15:15:43;26.57;;;13.90;;
6564;SDS011;3316;44.118;27.258;2023-01-26T15:23:28;34.33;;;17.93;;
6564;SDS011;3316;44.118;27.258;2023-01-26T15:25:54;32.50;;;14.70;;
6564;SDS011;3316;44.118;27.258;2023-01-26T15:28:23;30.00;;;13.53;;
6564;SDS011;3316;44.118;27.258;2023-01-26T15:30:55;29.02;;;14.60;;
6564;SDS011;3316;44.118;27.258;2023-01-26T15:33:43;34.73;;;15.33;;
6564;SDS011;3316;44.118;27.258;2023-01-26T15:38:55;30.13;;;15.97;;
6564;SDS011;3316;44.118;27.258;2023-01-26T15:41:23;35.80;;;20.27;;
6564;SDS011;3316;44.118;27.258;2023-01-26T15:43:48;40.43;;;19.33;;
6564;SDS011;3316;44.118;27.258;2023-01-26T15:46:14;39.77;;;18.97;;
6564;SDS011;3316;44.118;27.258;2023-01-26T15:48:39;27.57;;;14.57;;
6564;SDS011;3316;44.118;27.258;2023-01-26T15:51:09;19.97;;;10.90;;
6564;SDS011;3316;44.118;27.258;2023-01-26T15:53:36;30.67;;;16.73;;
6564;SDS011;3316;44.118;27.258;2023-01-26T15:56:02;27.67;;;14.27;;
6564;SDS011;3316;44.118;27.258;2023-01-26T15:58:28;19.23;;;12.27;;
6564;SDS011;3316;44.118;27.258;2023-01-26T16:00:55;26.57;;;14.77;;
6564;SDS011;3316;44.118;27.258;2023-01-26T16:03:21;22.30;;;11.73;;
6564;SDS011;3316;44.118;27.258;2023-01-26T16:05:47;14.90;;;9.80;;
6564;SDS011;3316;44.118;27.258;2023-01-26T16:08:13;23.03;;;12.57;;
6564;SDS011;3316;44.118;27.258;2023-01-26T16:10:42;20.40;;;10.10;;
6564;SDS011;3316;44.118;27.258;2023-01-26T16:13:11;18.47;;;10.60;;
6564;SDS011;3316;44.118;27.258;2023-01-26T16:15:45;30.53;;;18.67;;
6564;SDS011;3316;44.118;27.258;2023-01-26T16:18:11;25.70;;;13.37;;
6564;SDS011;3316;44.118;27.258;2023-01-26T16:20:37;31.60;;;18.40;;
6564;SDS011;3316;44.118;27.258;2023-01-26T16:23:24;28.90;;;15.97;;
6564;SDS011;3316;44.118;27.258;2023-01-26T16:25:52;34.73;;;16.03;;
6564;SDS011;3316;44.118;27.258;2023-01-26T16:28:18;29.40;;;15.97;;
6564;SDS011;3316;44.118;27.258;2023-01-26T16:30:45;33.53;;;19.47;;
6564;SDS011;3316;44.118;27.258;2023-01-26T16:33:14;23.50;;;14.00;;
6564;SDS011;3316;44.118;27.258;2023-01-26T16:35:41;28.57;;;17.07;;
6564;SDS011;3316;44.118;27.258;2023-01-26T16:38:07;26.83;;;12.90;;
6564;SDS011;3316;44.118;27.258;2023-01-26T16:40:37;33.43;;;20.93;;
6564;SDS011;3316;44.118;27.258;2023-01-26T16:43:20;34.50;;;17.90;;
6564;SDS011;3316;44.118;27.258;2023-01-26T16:45:48;39.73;;;17.33;;
6564;SDS011;3316;44.118;27.258;2023-01-26T16:48:14;46.97;;;23.43;;
6564;SDS011;3316;44.118;27.258;2023-01-26T16:50:41;39.50;;;18.20;;
6564;SDS011;3316;44.118;27.258;2023-01-26T16:55:57;22.50;;;11.77;;
6564;SDS011;3316;44.118;27.258;2023-01-26T16:58:23;40.37;;;21.40;;